M I D A S
Marine Information and Data Acquisition System
Tripno 935 of the Zeeleeuw from 2005-07-04 06:34:52 to 2005-07-04 12:00:02
Back to CruiseResearch ActivitiesStationsMapUnderway DataData graphs

EquipmentUnitsComment
TimeDGPSUTC
LatitudeDGPSDM.mWGS84
LongitudeDGPSDM.mWGS84
HeadingGyrodeg 
SOGDGPSknotsSpeed over ground
COGDGPSdegCourse over ground
DepthEcho soundermeters200 kHz
Missing or incorrect values are displayed as -999
Navigation data collected by the RV Zeeleeuw from 2005-07-04 06:30:44 to 2005-07-04 12:10:51
Time Latitude Longitude Heading SOG COG Depth
2005-07-04 06:31:49 51°13.593 2°56.116 136.6 0.2 331 4.9
2005-07-04 06:32:49 51°13.595 2°56.111 134.7 0.3 305 6.4
2005-07-04 06:33:48 51°13.595 2°56.109 136.7 0.1 255 6.3
2005-07-04 06:34:50 51°13.581 2°56.124 144.8 2.7 141 7.7
2005-07-04 06:35:49 51°13.55 2°56.189 106.5 3.1 101 9.9
2005-07-04 06:36:50 51°13.552 2°56.192 72.6 0.6 285 5.2
2005-07-04 06:37:49 51°13.551 2°56.183 40.5 0.9 241 9.8
2005-07-04 06:38:48 51°13.552 2°56.177 10.6 0.4 321 6.4
2005-07-04 06:39:50 51°13.55 2°56.167 343.6 0.5 225 -999
2005-07-04 06:40:49 51°13.572 2°56.098 296 4.5 295 9.9
2005-07-04 06:41:49 51°13.62 2°55.967 306.2 6.3 304 9.4
2005-07-04 06:42:50 51°13.686 2°55.82 310.2 6.9 307 9.1
2005-07-04 06:43:49 51°13.772 2°55.684 324.8 7.6 321 9.4
2005-07-04 06:44:49 51°13.887 2°55.587 339.6 8 336 10
2005-07-04 06:45:50 51°14.01 2°55.502 341.5 8.1 338 11
2005-07-04 06:46:49 51°14.136 2°55.415 337.3 8.9 334 10.4
2005-07-04 06:47:49 51°14.265 2°55.246 317.1 10.6 313 10.5
2005-07-04 06:48:48 51°14.381 2°55.022 313.1 11.8 309 10.2
2005-07-04 06:49:49 51°14.528 2°54.786 327.9 12.6 323 9.9
2005-07-04 06:50:49 51°14.708 2°54.594 333.4 13.4 326 9.5
2005-07-04 06:51:49 51°14.894 2°54.39 334.1 13.5 326 9
2005-07-04 06:52:48 51°15.078 2°54.215 340.4 13.2 329 8.4
2005-07-04 06:53:49 51°15.268 2°54.012 337.5 13.6 328 9.1
2005-07-04 06:54:49 51°15.46 2°53.817 336.2 13.7 327 10
2005-07-04 06:55:49 51°15.659 2°53.646 342.6 13.7 333 10.7
2005-07-04 06:56:49 51°15.856 2°53.481 342.2 13.3 332 11.2
2005-07-04 06:57:50 51°16.056 2°53.312 342.2 13.4 331 11.7
2005-07-04 06:58:49 51°16.252 2°53.156 345.1 13.4 335 11.9
2005-07-04 06:59:48 51°16.453 2°53.01 345.8 13.3 337 11.9
2005-07-04 07:00:49 51°16.659 2°52.867 344 13.1 337 11.2
2005-07-04 07:01:49 51°16.856 2°52.73 343.3 12.8 336 9.4
2005-07-04 07:02:49 51°17.052 2°52.588 342.9 12.9 335 9.7
2005-07-04 07:03:49 51°17.247 2°52.449 344 13 336 10.1
2005-07-04 07:04:49 51°17.449 2°52.33 351.8 12.8 343 10.6
2005-07-04 07:05:49 51°17.655 2°52.255 0.2 12.7 348 10.5
2005-07-04 07:06:48 51°17.86 2°52.224 3.6 12.7 355 10.5
2005-07-04 07:07:48 51°18.07 2°52.193 3.6 12.7 355 10.7
2005-07-04 07:08:49 51°18.287 2°52.158 2.6 12.8 354 11.2
2005-07-04 07:09:48 51°18.496 2°52.124 2.7 12.9 354 11.8
2005-07-04 07:10:48 51°18.71 2°52.089 3.2 12.9 354 12.8
2005-07-04 07:11:49 51°18.927 2°52.052 2.7 12.9 354 13.8
2005-07-04 07:12:50 51°19.143 2°52.011 2.4 13 353 14.7
2005-07-04 07:13:48 51°19.354 2°51.973 2.9 13 354 15.6
2005-07-04 07:14:49 51°19.573 2°51.932 2.1 13.1 353 15.8
2005-07-04 07:15:49 51°19.787 2°51.891 2.9 13 353 15.9
2005-07-04 07:16:50 51°20.005 2°51.849 2.2 13.1 353 15.1
2005-07-04 07:17:50 51°20.221 2°51.807 2.8 13.1 354 14.2
2005-07-04 07:18:49 51°20.436 2°51.767 3.2 13.1 354 13.3
2005-07-04 07:19:49 51°20.652 2°51.725 1.9 13.2 352 14.6
2005-07-04 07:20:49 51°20.87 2°51.683 2.6 13.1 353 17
2005-07-04 07:21:49 51°21.088 2°51.635 1.9 13.2 352 18.7
2005-07-04 07:22:50 51°21.309 2°51.588 2.9 13.3 353 21.7
2005-07-04 07:23:50 51°21.527 2°51.54 1.7 13.4 352 23.5
2005-07-04 07:24:49 51°21.744 2°51.491 1.4 13.3 351 24.3
2005-07-04 07:25:49 51°21.964 2°51.47 7.7 13.3 358 24.1
2005-07-04 07:26:49 51°22.187 2°51.452 6.8 13.4 356 23.2
2005-07-04 07:27:49 51°22.408 2°51.439 10.1 13.3 -999 23.8
2005-07-04 07:28:49 51°22.627 2°51.441 10.8 13.2 -999 23.1
2005-07-04 07:29:49 51°22.846 2°51.444 10.1 13.1 1 23.2
2005-07-04 07:30:49 51°23.059 2°51.452 12.4 12.8 3 21.4
2005-07-04 07:31:48 51°23.264 2°51.474 13.2 12.4 5 15
2005-07-04 07:32:48 51°23.472 2°51.497 12 12.5 4 15.8
2005-07-04 07:33:49 51°23.683 2°51.52 12.3 12.5 4 16.2
2005-07-04 07:34:49 51°23.892 2°51.539 12.3 12.6 3 19.4
2005-07-04 07:35:49 51°24.103 2°51.558 11.3 12.8 2 20.2
2005-07-04 07:36:49 51°24.314 2°51.564 10.1 12.7 1 21.7
2005-07-04 07:37:49 51°24.524 2°51.57 10.2 12.7 1 22.2
2005-07-04 07:38:50 51°24.74 2°51.577 10.6 12.9 1 22.4
2005-07-04 07:39:49 51°24.952 2°51.58 10.2 12.8 -999 23.3
2005-07-04 07:40:49 51°25.165 2°51.583 10 12.8 1 23
2005-07-04 07:41:50 51°25.379 2°51.588 10 12.8 1 23.3
2005-07-04 07:42:49 51°25.589 2°51.594 10.5 12.7 1 24.3
2005-07-04 07:43:49 51°25.799 2°51.603 10.4 12.8 2 25.8
2005-07-04 07:44:49 51°26.012 2°51.633 16.2 12.8 11 30.5
2005-07-04 07:45:50 51°26.223 2°51.705 19.8 12.8 12 26
2005-07-04 07:46:49 51°26.423 2°51.806 27.5 12.7 20 26.5
2005-07-04 07:47:50 51°26.595 2°51.911 29 9 20 27.4
2005-07-04 07:48:46 51°26.676 2°51.996 35.1 5.4 26 27.8
2005-07-04 07:49:50 51°26.751 2°52.037 29.4 2.8 17 26.8
2005-07-04 07:50:50 51°26.753 2°52.031 63.6 0.4 227 26.8
2005-07-04 07:51:49 51°26.745 2°52.027 73.1 0.4 194 26.8
2005-07-04 07:52:49 51°26.737 2°52.024 66.5 0.4 190 26.8
2005-07-04 07:53:49 51°26.73 2°52.02 50.8 0.5 202 26.7
2005-07-04 07:54:50 51°26.722 2°52.015 43.1 0.6 194 27.1
2005-07-04 07:55:49 51°26.723 2°52.025 45.6 2.3 43 27.1
2005-07-04 07:56:49 51°26.817 2°52.138 50.8 9.3 49 27.4
2005-07-04 07:57:49 51°26.906 2°52.362 60.8 10.3 57 26.9
2005-07-04 07:58:50 51°26.983 2°52.611 70.2 10.3 67 27.1
2005-07-04 07:59:50 51°27.028 2°52.795 64.5 6.3 62 25.8
2005-07-04 08:00:49 51°27.053 2°52.845 69.5 0.2 119 27.4
2005-07-04 08:01:50 51°27.047 2°52.849 73.2 0.3 154 27.7
2005-07-04 08:02:49 51°27.039 2°52.85 60.9 0.5 179 27.7
2005-07-04 08:03:50 51°27.054 2°52.879 45.4 2.2 51 26.3
2005-07-04 08:04:50 51°27.119 2°53.05 67.9 8.4 65 27.1
2005-07-04 08:05:50 51°27.191 2°53.26 66.1 9.1 62 28.2
2005-07-04 08:06:49 51°27.247 2°53.474 74.5 8 73 26.9
2005-07-04 08:07:49 51°27.282 2°53.586 61.9 3.4 63 27.2
2005-07-04 08:08:49 51°27.288 2°53.616 71.1 0.8 99 27.1
2005-07-04 08:09:49 51°27.284 2°53.63 62.1 0.4 126 27
2005-07-04 08:10:50 51°27.278 2°53.634 53.7 0.4 174 27
2005-07-04 08:11:49 51°27.309 2°53.721 61.9 7.3 58 25.8
2005-07-04 08:12:50 51°27.382 2°53.941 62.1 9.8 59 24.8
2005-07-04 08:13:48 51°27.459 2°54.168 65.6 10 60 26.9
2005-07-04 08:14:49 51°27.529 2°54.336 56.7 7.2 56 28
2005-07-04 08:15:50 51°27.527 2°54.36 99.5 0.8 165 27.9
2005-07-04 08:16:50 51°27.51 2°54.364 94 1 175 27.9
2005-07-04 08:17:49 51°27.498 2°54.365 73.5 0.7 175 27.8
2005-07-04 08:18:50 51°27.528 2°54.433 46.7 5.7 40 28.1
2005-07-04 08:19:50 51°27.64 2°54.411 338.1 7.9 320 25.5
2005-07-04 08:20:49 51°27.683 2°54.189 296.3 9.6 289 24.8
2005-07-04 08:21:50 51°27.74 2°53.942 289 10.1 278 23.2
2005-07-04 08:22:49 51°27.8 2°53.747 323.2 6.4 309 22.4
2005-07-04 08:23:49 51°27.815 2°53.7 357.2 1 217 20.8
2005-07-04 08:24:50 51°27.798 2°53.686 30.4 1.3 206 -999
2005-07-04 08:25:50 51°27.777 2°53.673 50 1.4 200 -999
2005-07-04 08:26:50 51°27.755 2°53.659 65.4 1.3 202 22.2
2005-07-04 08:27:49 51°27.737 2°53.655 71 1 131 23.1
2005-07-04 08:28:50 51°27.784 2°53.656 344.8 4.7 326 20.3
2005-07-04 08:29:50 51°27.765 2°53.499 247.1 7.6 241 22.4
2005-07-04 08:30:50 51°27.702 2°53.277 253.5 9.6 245 21.6
2005-07-04 08:31:50 51°27.637 2°53.046 251.4 8.7 245 22.1
2005-07-04 08:32:49 51°27.594 2°52.914 266.4 2.9 237 21.7
2005-07-04 08:33:50 51°27.571 2°52.92 252.8 1.2 174 20.8
2005-07-04 08:34:49 51°27.55 2°52.92 232.7 1.2 185 22.1
2005-07-04 08:35:49 51°27.505 2°52.842 249 6.7 240 21.4
2005-07-04 08:36:50 51°27.453 2°52.638 256 9 248 22.4
2005-07-04 08:37:50 51°27.416 2°52.401 266.6 9.2 258 23.8
2005-07-04 08:38:50 51°27.385 2°52.218 267.2 4.7 255 23.4
2005-07-04 08:39:50 51°27.364 2°52.19 265.8 1.4 193 -999
2005-07-04 08:40:49 51°27.341 2°52.183 240.1 1.5 191 22
2005-07-04 08:41:49 51°27.31 2°52.164 233.3 4.1 221 23.3
2005-07-04 08:42:49 51°27.261 2°51.988 255 8.9 246 23.2
2005-07-04 08:43:50 51°27.206 2°51.743 255.4 10 248 21.4
2005-07-04 08:44:49 51°27.156 2°51.523 261.1 7.1 250 22.8
2005-07-04 08:45:49 51°27.127 2°51.418 273.2 1.6 214 22
2005-07-04 08:46:50 51°27.105 2°51.419 251.6 1.3 178 -999
2005-07-04 08:47:49 51°27.084 2°51.42 233.4 1.3 180 21.5
2005-07-04 08:48:50 51°27.048 2°51.356 258.9 6.1 247 22.7
2005-07-04 08:49:49 51°27.092 2°51.183 328 8 318 21
2005-07-04 08:50:49 51°27.192 2°51.012 315.5 9.3 307 19.5
2005-07-04 08:51:50 51°27.304 2°50.838 329.7 9.3 320 19.2
2005-07-04 08:52:47 51°27.397 2°50.733 352.9 4.5 346 23
2005-07-04 08:53:50 51°27.428 2°50.748 45 0.7 84 23.5
2005-07-04 08:54:50 51°27.424 2°50.77 53.1 0.9 113 22.9
2005-07-04 08:55:50 51°27.418 2°50.787 44.2 0.7 133 22.8
2005-07-04 08:56:49 51°27.467 2°50.868 41.6 7.6 41 23.2
2005-07-04 08:57:50 51°27.55 2°51.088 64.5 10.2 69 22.9
2005-07-04 08:58:49 51°27.633 2°51.333 63.1 10.6 64 22.3
2005-07-04 08:59:49 51°27.671 2°51.521 68.4 4.4 72 21.7
2005-07-04 09:00:50 51°27.669 2°51.557 69.1 1.1 130 22.3
2005-07-04 09:01:49 51°27.657 2°51.576 56.9 1 138 22.3
2005-07-04 09:02:50 51°27.643 2°51.59 52.9 1.1 149 22.3
2005-07-04 09:03:49 51°27.668 2°51.669 50.6 5.5 55 21
2005-07-04 09:04:49 51°27.726 2°51.85 62.4 8.1 63 22.3
2005-07-04 09:05:49 51°27.795 2°52.047 60.2 8.5 60 22.6
2005-07-04 09:06:49 51°27.851 2°52.217 56.8 5.6 61 23.3
2005-07-04 09:07:50 51°27.871 2°52.276 50.5 0.7 111 23.6
2005-07-04 09:08:49 51°27.863 2°52.295 50.6 0.9 122 23.6
2005-07-04 09:09:49 51°27.852 2°52.314 49.3 1.1 139 23
2005-07-04 09:10:49 51°27.897 2°52.407 47.8 6.2 47 22.4
2005-07-04 09:11:49 51°27.968 2°52.585 55.9 8.4 55 23.2
2005-07-04 09:12:49 51°28.04 2°52.78 67.4 8.7 67 22.9
2005-07-04 09:13:50 51°28.094 2°52.959 56.5 6 63 23.6
2005-07-04 09:14:49 51°28.095 2°53 91.3 0.9 146 23.3
2005-07-04 09:15:49 51°28.079 2°53.017 102.3 1.2 145 23.3
2005-07-04 09:16:50 51°28.063 2°53.04 88.6 1.3 131 23.3
2005-07-04 09:17:50 51°28.069 2°53.13 68.4 4.8 74 23.3
2005-07-04 09:18:50 51°28.115 2°53.264 56.6 5.5 59 23
2005-07-04 09:19:49 51°28.155 2°53.38 57.3 4.6 65 23.3
2005-07-04 09:20:49 51°28.141 2°53.483 125 4.1 132 21.3
2005-07-04 09:21:49 51°28.083 2°53.511 188.6 3.5 180 23.3
2005-07-04 09:22:50 51°28.036 2°53.483 231.6 3 215 23
2005-07-04 09:23:49 51°28.008 2°53.433 249.5 2.3 228 22.1
2005-07-04 09:24:49 51°27.983 2°53.385 255.7 2.3 234 22.3
2005-07-04 09:25:49 51°27.961 2°53.332 259.5 2.6 241 22.2
2005-07-04 09:26:50 51°27.939 2°53.268 258 2.8 241 22.5
2005-07-04 09:27:50 51°27.918 2°53.202 260.1 2.8 244 23.4
2005-07-04 09:28:49 51°27.899 2°53.145 260.7 2.1 239 22.3
2005-07-04 09:29:49 51°27.881 2°53.092 257.9 2.5 242 22.8
2005-07-04 09:30:50 51°27.859 2°53.036 256.1 2.4 239 22.2
2005-07-04 09:31:49 51°27.842 2°52.983 258.7 2.2 241 22
2005-07-04 09:32:50 51°27.822 2°52.927 258.9 2.4 243 22.5
2005-07-04 09:33:49 51°27.804 2°52.874 257.9 2.3 239 21.9
2005-07-04 09:34:50 51°27.783 2°52.821 258.4 2.3 237 23.3
2005-07-04 09:35:50 51°27.768 2°52.766 262.3 2.2 248 23.1
2005-07-04 09:36:49 51°27.753 2°52.712 260.8 2.2 245 21.9
2005-07-04 09:37:49 51°27.737 2°52.66 261.6 2.1 247 22.5
2005-07-04 09:38:50 51°27.723 2°52.608 262.4 2 244 21.1
2005-07-04 09:39:50 51°27.71 2°52.555 264.9 2.2 254 21.8
2005-07-04 09:40:49 51°27.7 2°52.502 265.1 2.1 253 21.6
2005-07-04 09:41:50 51°27.69 2°52.448 264.1 2.1 249 22.1
2005-07-04 09:42:50 51°27.678 2°52.397 264.4 2 247 20.9
2005-07-04 09:43:50 51°27.668 2°52.348 263.6 2 251 23.3
2005-07-04 09:44:49 51°27.653 2°52.294 261.3 2.3 249 22.2
2005-07-04 09:45:50 51°27.641 2°52.229 266.8 2.6 259 22.4
2005-07-04 09:46:50 51°27.634 2°52.158 265.1 2.8 259 21.4
2005-07-04 09:47:49 51°27.627 2°52.084 270.1 2.9 267 23.2
2005-07-04 09:48:50 51°27.627 2°52.005 275.2 2.9 272 22.1
2005-07-04 09:49:50 51°27.629 2°51.925 279.2 3 276 22.5
2005-07-04 09:50:50 51°27.635 2°51.868 281.9 1.8 276 22.3
2005-07-04 09:51:49 51°27.637 2°51.838 278.8 0.8 279 22.6
2005-07-04 09:52:50 51°27.633 2°51.798 254.7 2.2 258 23.2
2005-07-04 09:53:50 51°27.581 2°51.758 195.2 4.3 185 23.1
2005-07-04 09:54:49 51°27.482 2°51.767 180.5 6.9 175 21.6
2005-07-04 09:55:50 51°27.349 2°51.798 175.2 8.4 172 23.6
2005-07-04 09:56:50 51°27.208 2°51.84 175.7 8.7 171 23.6
2005-07-04 09:57:50 51°27.064 2°51.875 178.5 8.7 172 22.7
2005-07-04 09:58:50 51°26.943 2°51.93 163.4 6.6 154 27
2005-07-04 09:59:50 51°26.867 2°52.036 138.4 5.9 133 28.5
2005-07-04 10:00:49 51°26.852 2°52.173 86.3 5.2 82 28.9
2005-07-04 10:01:50 51°26.891 2°52.297 52.9 5.3 54 27.7
2005-07-04 10:02:50 51°26.945 2°52.402 46.1 5 49 28.8
2005-07-04 10:03:50 51°26.989 2°52.491 47.4 4 52 27.5
2005-07-04 10:04:50 51°27.023 2°52.572 50.9 3.6 57 27.1
2005-07-04 10:05:50 51°27.053 2°52.645 50.8 3.2 58 28.4
2005-07-04 10:06:50 51°27.078 2°52.714 53.2 2.9 62 25.9
2005-07-04 10:07:50 51°27.1 2°52.781 54.9 2.8 63 26.5
2005-07-04 10:08:50 51°27.12 2°52.842 54.6 2.5 60 25.1
2005-07-04 10:09:48 51°27.136 2°52.895 56.9 2.3 65 27.6
2005-07-04 10:10:49 51°27.151 2°52.953 65.3 2.3 70 27.9
2005-07-04 10:11:50 51°27.162 2°53.009 74.8 2.2 75 25.9
2005-07-04 10:12:49 51°27.17 2°53.069 80.6 2.3 78 29.5
2005-07-04 10:13:49 51°27.178 2°53.131 82.6 2.3 81 29.6
2005-07-04 10:14:49 51°27.185 2°53.192 78.2 2.3 78 27.3
2005-07-04 10:15:50 51°27.197 2°53.252 68.3 2.4 72 30
2005-07-04 10:16:49 51°27.211 2°53.31 65.2 2.4 66 28.1
2005-07-04 10:17:50 51°27.227 2°53.368 64.3 2.3 68 28.5
2005-07-04 10:18:50 51°27.242 2°53.427 62.6 2.3 67 29.4
2005-07-04 10:19:49 51°27.258 2°53.484 61.8 2.3 66 29.5
2005-07-04 10:20:50 51°27.273 2°53.541 62.6 2.4 65 28.8
2005-07-04 10:21:50 51°27.288 2°53.601 64.5 2.4 70 29.2
2005-07-04 10:22:50 51°27.302 2°53.662 66 2.5 73 28.2
2005-07-04 10:23:50 51°27.318 2°53.731 66 3.1 69 27.1
2005-07-04 10:24:50 51°27.339 2°53.81 64.1 3.4 67 26.3
2005-07-04 10:25:50 51°27.362 2°53.896 66.8 3.6 68 26.5
2005-07-04 10:26:49 51°27.382 2°53.988 70.1 3.7 69 26.8
2005-07-04 10:27:49 51°27.401 2°54.081 73.6 3.8 72 27.6
2005-07-04 10:28:50 51°27.42 2°54.18 73.7 3.9 72 28.4
2005-07-04 10:29:50 51°27.44 2°54.277 75.8 3.9 72 28.9
2005-07-04 10:30:49 51°27.455 2°54.363 77.2 3 75 30.3
2005-07-04 10:31:50 51°27.468 2°54.428 71 2.3 73 30.3
2005-07-04 10:32:50 51°27.48 2°54.483 64 2 70 30.5
2005-07-04 10:33:50 51°27.499 2°54.547 63 3.4 63 29.7
2005-07-04 10:34:50 51°27.51 2°54.704 105.2 8.4 93 31.3
2005-07-04 10:35:50 51°27.374 2°54.801 196.6 10.4 190 31.6
2005-07-04 10:36:49 51°27.16 2°54.774 187.7 13.4 182 31.2
2005-07-04 10:37:49 51°26.943 2°54.726 194.6 13.3 187 30.1
2005-07-04 10:38:50 51°26.727 2°54.648 198.4 12.8 191 27.6
2005-07-04 10:39:49 51°26.517 2°54.583 198 12.9 190 26.2
2005-07-04 10:40:50 51°26.302 2°54.52 198.3 12.9 192 26.2
2005-07-04 10:41:49 51°26.093 2°54.453 197.8 12.9 192 26.2
2005-07-04 10:42:49 51°25.887 2°54.405 195.7 12.5 189 25.6
2005-07-04 10:43:49 51°25.68 2°54.349 197.2 12.7 189 24.9
2005-07-04 10:44:49 51°25.472 2°54.318 193.6 12.7 185 23
2005-07-04 10:45:50 51°25.262 2°54.278 192.5 12.4 184 23.8
2005-07-04 10:46:49 51°25.055 2°54.24 193.9 12.8 188 22.7
2005-07-04 10:47:50 51°24.842 2°54.203 190.9 12.7 184 21
2005-07-04 10:48:49 51°24.636 2°54.161 194.9 12.5 187 19.5
2005-07-04 10:49:50 51°24.424 2°54.127 195 12.6 184 21.5
2005-07-04 10:50:49 51°24.218 2°54.087 195.2 12.5 184 24.2
2005-07-04 10:51:49 51°24.007 2°54.048 195.2 12.9 187 24.1
2005-07-04 10:52:49 51°23.801 2°54.02 194 12.5 186 23.6
2005-07-04 10:53:50 51°23.591 2°53.998 193.2 12.6 182 23.1
2005-07-04 10:54:49 51°23.383 2°53.967 196 12.5 185 22.4
2005-07-04 10:55:50 51°23.178 2°53.941 192.4 12.3 183 23
2005-07-04 10:56:49 51°22.97 2°53.921 193.9 12.8 184 20.9
2005-07-04 10:57:49 51°22.764 2°53.878 200.6 12.5 190 25.3
2005-07-04 10:58:50 51°22.56 2°53.815 199.6 12.2 187 25.6
2005-07-04 10:59:50 51°22.353 2°53.753 200.9 12.4 191 24.3
2005-07-04 11:00:50 51°22.149 2°53.695 199.8 12.5 189 22.4
2005-07-04 11:01:50 51°21.945 2°53.643 199.8 12.4 191 21.4
2005-07-04 11:02:50 51°21.739 2°53.571 202.5 12.6 193 20
2005-07-04 11:03:50 51°21.536 2°53.503 200.1 12.4 192 19.2
2005-07-04 11:04:50 51°21.332 2°53.439 198.5 12.4 190 18.6
2005-07-04 11:05:49 51°21.13 2°53.372 200.1 12.4 192 19
2005-07-04 11:06:50 51°20.925 2°53.309 199.9 12.4 190 19
2005-07-04 11:07:49 51°20.72 2°53.244 199.5 12.7 191 19.1
2005-07-04 11:08:50 51°20.513 2°53.172 200.8 12.6 192 19.1
2005-07-04 11:09:50 51°20.309 2°53.11 199 12.7 191 19.1
2005-07-04 11:10:50 51°20.101 2°53.092 179.1 -999 -999 18.7
2005-07-04 11:11:49 51°19.893 2°53.188 174.4 13 167 18.1
2005-07-04 11:12:49 51°19.68 2°53.197 189.9 12.8 181 17.2
2005-07-04 11:13:50 51°19.476 2°53.121 202.1 12.4 196 16.5
2005-07-04 11:14:49 51°19.283 2°53.031 204.5 12.2 195 15.8
2005-07-04 11:15:50 51°19.086 2°52.934 205.1 12.3 200 15.2
2005-07-04 11:16:49 51°18.891 2°52.843 203 12.3 197 14.7
2005-07-04 11:17:50 51°18.692 2°52.748 201.8 12.3 198 14.3
2005-07-04 11:18:49 51°18.495 2°52.65 203.4 12.4 196 14
2005-07-04 11:19:50 51°18.291 2°52.551 205.6 12.4 199 13.8
2005-07-04 11:20:50 51°18.098 2°52.462 202.1 12.3 195 13.4
2005-07-04 11:21:50 51°17.899 2°52.377 202.3 12.3 197 13.2
2005-07-04 11:22:50 51°17.701 2°52.288 202.9 12.3 197 13.1
2005-07-04 11:23:50 51°17.504 2°52.196 200.4 12.2 195 13.3
2005-07-04 11:24:49 51°17.308 2°52.117 199.5 12.4 193 13.4
2005-07-04 11:25:50 51°17.113 2°52.01 208.8 12.4 205 13.3
2005-07-04 11:26:49 51°16.933 2°51.861 210.6 12.3 207 13.1
2005-07-04 11:27:49 51°16.75 2°51.711 211.2 12.3 206 13.6
2005-07-04 11:28:50 51°16.571 2°51.547 216 12.3 212 13.6
2005-07-04 11:29:50 51°16.399 2°51.372 216.7 12 214 13
2005-07-04 11:30:50 51°16.231 2°51.188 218.3 12.2 213 14
2005-07-04 11:31:49 51°16.067 2°51.009 218.9 12 213 15.1
2005-07-04 11:32:50 51°15.899 2°50.833 217.7 11.9 213 15.5
2005-07-04 11:33:50 51°15.735 2°50.662 217.4 11.8 212 15.5
2005-07-04 11:34:50 51°15.57 2°50.483 219.6 12.1 214 15.6
2005-07-04 11:35:50 51°15.404 2°50.297 219.2 12.1 218 15.6
2005-07-04 11:36:50 51°15.237 2°50.12 218.4 12.1 214 15.6
2005-07-04 11:37:50 51°15.071 2°49.941 218 11.9 213 15.5
2005-07-04 11:38:50 51°14.907 2°49.761 219.1 11.9 215 15.3
2005-07-04 11:39:50 51°14.744 2°49.582 217.3 11.9 215 15.1
2005-07-04 11:40:50 51°14.582 2°49.399 219.3 12 216 14.8
2005-07-04 11:41:50 51°14.404 2°49.27 196.4 12.2 185 14.4
2005-07-04 11:42:50 51°14.222 2°49.415 139.8 13.5 127 14
2005-07-04 11:43:50 51°14.184 2°49.778 95.6 14.4 84 12.9
2005-07-04 11:44:50 51°14.241 2°50.157 77 15 73 12.4
2005-07-04 11:45:50 51°14.317 2°50.536 76 15 72 12.4
2005-07-04 11:46:50 51°14.39 2°50.917 77.1 15.1 73 12.3
2005-07-04 11:47:50 51°14.463 2°51.298 75.7 15 72 12.1
2005-07-04 11:48:49 51°14.521 2°51.677 82.8 14.9 80 12.3
2005-07-04 11:49:50 51°14.57 2°52.065 83.5 14.8 79 12.2
2005-07-04 11:50:50 51°14.617 2°52.448 83.4 14.6 81 12.1
2005-07-04 11:51:50 51°14.635 2°52.833 90.8 14.7 87 11.9
2005-07-04 11:52:50 51°14.653 2°53.22 91.4 14.7 87 11.6
2005-07-04 11:53:50 51°14.631 2°53.603 102.8 14.5 97 11.5
2005-07-04 11:54:50 51°14.597 2°53.988 107.6 14.5 100 13
2005-07-04 11:55:50 51°14.531 2°54.357 115.5 14.4 109 13.1
2005-07-04 11:56:50 51°14.444 2°54.708 119.7 14.2 114 12.9
2005-07-04 11:57:50 51°14.357 2°55.049 119.1 13.4 115 12.7
2005-07-04 11:58:50 51°14.263 2°55.258 134.6 8.1 131 13.3
2005-07-04 11:59:50 51°14.165 2°55.374 152.4 7.5 151 13.1
2005-07-04 12:00:50 51°14.038 2°55.474 155.3 8.7 155 12.8
2005-07-04 12:01:50 51°13.94 2°55.553 158.2 5.9 155 13
2005-07-04 12:02:50 51°13.844 2°55.625 158.3 6.6 156 13.4
2005-07-04 12:03:50 51°13.755 2°55.715 140.8 6.2 142 12.1
2005-07-04 12:04:50 51°13.699 2°55.818 136.2 5.2 130 12.6
2005-07-04 12:05:50 51°13.644 2°55.917 134.3 4.3 131 11.9
2005-07-04 12:06:50 51°13.609 2°56 116.7 3.6 116 12.1
2005-07-04 12:07:50 51°13.6 2°56.083 96.1 2.5 90 10.2
2005-07-04 12:08:50 51°13.599 2°56.105 109.5 0.6 119 9.1
2005-07-04 12:09:51 51°13.598 2°56.109 119 0.1 358 9